Pomona, Missouri
Current Conditions -  °F | °C
As of 10:31 AM on Wednesday 22 Oct 2014 (Local Time) from KUNO Reporting Station
Few Clouds Few Clouds  
Wind Chill: 54°   Ceiling: Unl
Heat Index: 54°   Visibility: 10mi
Dew Point: 41°   Wind: 8mph
Humidity: 62%   Direction: 120°ESE
Pressure: 30.29"   Gusts: NA
Location:  36.87°N, 91.91°W
Report Text: KUNO 221531Z AUTO 12007KT 10SM FEW002 12/05 A3029 RMK AO2 T01220050
Loading
Personal Weather Stations






























Interactive Weather Map
Tropical Storm Tracking
New forecast layout! Learn more

10-Day Weather Forecast

Advertisements
Track Severe Weather on mobile